createdAt,value
2023-06-12T00:00:46.547Z,74.19
2023-06-12T00:01:46.522Z,75.14
2023-06-12T00:02:46.675Z,75.65
2023-06-12T00:03:46.586Z,76.35
2023-06-12T00:04:46.562Z,76.39
2023-06-12T00:05:46.497Z,77.00
2023-06-12T00:06:46.469Z,77.03
2023-06-12T00:07:46.439Z,77.44
2023-06-12T00:08:46.505Z,77.24
2023-06-12T00:09:46.446Z,77.54
2023-06-12T00:10:46.419Z,77.28
2023-06-12T00:11:46.422Z,78.28
2023-06-12T00:12:46.403Z,77.92
2023-06-12T00:13:46.433Z,78.73
2023-06-12T00:14:46.404Z,79.07
2023-06-12T00:15:46.428Z,79.27
2023-06-12T00:16:46.442Z,79.07
2023-06-12T00:17:46.432Z,80.02
2023-06-12T00:18:46.387Z,79.98
2023-06-12T00:19:46.352Z,80.12
2023-06-12T00:20:46.368Z,79.72
2023-06-12T00:21:46.406Z,80.16
2023-06-12T00:22:46.323Z,80.66
2023-06-12T00:23:46.388Z,80.66
2023-06-12T00:24:46.351Z,80.66
2023-06-12T00:25:46.330Z,80.66
2023-06-12T00:26:46.342Z,80.87
2023-06-12T00:27:46.282Z,80.77
2023-06-12T00:28:46.327Z,80.97
2023-06-12T00:29:46.309Z,81.88
2023-06-12T00:30:46.274Z,82.12
2023-06-12T00:31:46.329Z,82.12
2023-06-12T00:32:46.330Z,82.33
2023-06-12T00:33:46.303Z,81.82
2023-06-12T00:34:46.239Z,82.17
2023-06-12T00:35:46.253Z,82.33
2023-06-12T00:36:46.270Z,82.37
2023-06-12T00:37:46.191Z,81.96
2023-06-12T00:38:46.197Z,83.08
2023-06-12T00:39:46.187Z,83.18
2023-06-12T00:40:46.201Z,82.37
2023-06-12T00:41:46.190Z,82.26
2023-06-12T00:42:46.191Z,82.81
2023-06-12T00:43:46.182Z,83.18
2023-06-12T00:44:46.161Z,83.28
2023-06-12T00:45:46.184Z,83.38
2023-06-12T00:46:46.175Z,83.38
2023-06-12T00:47:46.227Z,83.38
2023-06-12T00:48:46.121Z,84.60
2023-06-12T00:49:46.123Z,83.89
2023-06-12T00:51:18.917Z,84.20
2023-06-12T00:52:18.940Z,84.09
2023-06-12T00:52:46.132Z,83.59
2023-06-12T00:53:46.116Z,84.30
2023-06-12T00:54:46.071Z,84.30
2023-06-12T00:55:46.131Z,84.50
2023-06-12T00:56:46.176Z,84.60
2023-06-12T00:57:47.048Z,84.23
2023-06-12T00:58:46.072Z,84.44
2023-06-12T00:59:46.093Z,84.13
2023-06-12T01:00:46.178Z,84.13
2023-06-12T01:01:46.145Z,84.54
2023-06-12T01:02:46.169Z,84.17
2023-06-12T01:03:46.233Z,84.07
2023-06-12T01:04:46.016Z,84.28
2023-06-12T01:05:46.040Z,84.17
2023-06-12T01:06:46.020Z,84.28
2023-06-12T01:07:46.036Z,84.48
2023-06-12T01:08:45.991Z,84.07
2023-06-12T01:09:45.976Z,84.38
2023-06-12T01:10:45.945Z,84.17
2023-06-12T01:11:45.943Z,84.28
2023-06-12T01:12:45.999Z,84.48
2023-06-12T01:13:45.929Z,84.92
2023-06-12T01:14:45.969Z,84.82
2023-06-12T01:15:45.915Z,86.04
2023-06-12T01:16:45.987Z,85.70
2023-06-12T01:17:45.961Z,85.43
2023-06-12T01:18:45.905Z,85.23
2023-06-12T01:19:45.912Z,85.13
2023-06-12T01:20:45.875Z,85.13
2023-06-12T01:21:45.885Z,85.64
2023-06-12T01:22:45.909Z,85.43
2023-06-12T01:23:45.913Z,86.08
2023-06-12T01:24:45.871Z,86.15
2023-06-12T01:25:45.855Z,86.04
2023-06-12T01:26:45.885Z,86.04
2023-06-12T01:27:45.851Z,85.33
2023-06-12T01:28:45.828Z,85.23
2023-06-12T01:29:45.833Z,86.15
2023-06-12T01:30:45.800Z,86.35
2023-06-12T01:31:45.885Z,86.45
2023-06-12T01:32:45.847Z,86.45
2023-06-12T01:33:45.785Z,86.04
2023-06-12T01:34:45.773Z,86.25
2023-06-12T01:35:46.542Z,86.45
2023-06-12T01:36:45.788Z,86.25
2023-06-12T01:37:45.760Z,86.04
2023-06-12T01:38:45.752Z,86.04
2023-06-12T01:39:45.747Z,86.35
2023-06-12T01:40:45.703Z,86.04
2023-06-12T01:41:45.696Z,85.94
2023-06-12T01:42:45.728Z,85.94
2023-06-12T01:43:45.693Z,86.25
2023-06-12T01:44:45.671Z,85.53
2023-06-12T01:45:46.554Z,85.53
2023-06-12T01:46:45.703Z,85.64
2023-06-12T01:47:45.723Z,85.09
2023-06-12T01:48:45.660Z,85.09
2023-06-12T01:49:45.690Z,84.99
2023-06-12T01:50:46.528Z,84.54
2023-06-12T01:51:45.646Z,84.13
2023-06-12T01:52:45.648Z,84.95
2023-06-12T01:53:45.635Z,83.93
2023-06-12T01:54:45.663Z,84.44
2023-06-12T01:55:45.659Z,84.23
2023-06-12T01:56:45.594Z,83.93
2023-06-12T01:57:45.576Z,84.03
2023-06-12T01:58:46.533Z,84.44
2023-06-12T01:59:45.625Z,84.34
2023-06-12T02:00:45.580Z,84.64
2023-06-12T02:01:45.614Z,84.20
2023-06-12T02:02:45.561Z,84.50
2023-06-12T02:03:45.583Z,84.40
2023-06-12T02:04:45.573Z,83.48
2023-06-12T02:05:45.569Z,83.73
2023-06-12T02:06:45.534Z,83.59
2023-06-12T02:07:45.529Z,83.73
2023-06-12T02:08:45.515Z,83.83
2023-06-12T02:09:45.489Z,83.93
2023-06-12T02:10:45.535Z,84.44
2023-06-12T02:11:45.481Z,84.54
2023-06-12T02:12:45.498Z,84.54
2023-06-12T02:13:45.452Z,84.34
2023-06-12T02:14:45.458Z,84.13
2023-06-12T02:15:45.443Z,84.13
2023-06-12T02:16:45.475Z,84.23
2023-06-12T02:17:45.500Z,84.34
2023-06-12T02:18:46.051Z,84.64
2023-06-12T02:19:45.420Z,84.74
2023-06-12T02:20:45.399Z,84.34
2023-06-12T02:21:45.410Z,84.13
2023-06-12T02:22:45.427Z,84.34
2023-06-12T02:23:45.424Z,84.23
2023-06-12T02:24:45.381Z,84.68
2023-06-12T02:25:45.358Z,84.13
2023-06-12T02:26:45.340Z,84.07
2023-06-12T02:27:45.387Z,84.99
2023-06-12T02:28:45.348Z,84.68
2023-06-12T02:29:45.884Z,84.99
2023-06-12T02:30:45.310Z,84.99
2023-06-12T02:31:45.460Z,84.78
2023-06-12T02:32:45.458Z,84.74
2023-06-12T02:33:45.301Z,84.95
2023-06-12T02:34:45.303Z,85.60
2023-06-12T02:35:45.340Z,85.19
2023-06-12T02:36:46.019Z,84.78
2023-06-12T02:37:46.261Z,85.35
2023-06-12T02:38:45.262Z,84.78
2023-06-12T02:39:45.275Z,85.09
2023-06-12T02:40:45.226Z,84.78
2023-06-12T02:41:46.218Z,84.99
2023-06-12T02:42:45.237Z,84.68
2023-06-12T02:43:45.220Z,85.60
2023-06-12T02:44:45.213Z,85.09
2023-06-12T02:45:45.255Z,84.88
2023-06-12T02:46:45.201Z,85.60
2023-06-12T02:47:45.215Z,85.60
2023-06-12T02:48:45.192Z,84.78
2023-06-12T02:49:45.178Z,84.99
2023-06-12T02:50:45.198Z,85.49
2023-06-12T02:51:45.163Z,84.78
2023-06-12T02:52:45.142Z,84.99
2023-06-12T02:53:45.179Z,85.23
2023-06-12T02:54:45.131Z,84.88
2023-06-12T02:55:45.135Z,85.33
2023-06-12T02:56:45.162Z,86.15
2023-06-12T02:57:45.095Z,85.94
2023-06-12T02:58:45.597Z,86.15
2023-06-12T02:59:45.108Z,86.35
2023-06-12T03:00:45.091Z,86.04
2023-06-12T03:01:45.216Z,87.37
2023-06-12T03:02:45.088Z,87.26
2023-06-12T03:03:46.108Z,86.80
2023-06-12T03:04:45.051Z,87.20
2023-06-12T03:05:45.067Z,86.29
2023-06-12T03:06:45.071Z,87.20
2023-06-12T03:07:45.051Z,87.45
2023-06-12T03:08:45.274Z,87.14
2023-06-12T03:09:46.007Z,87.24
2023-06-12T03:10:45.016Z,87.08
2023-06-12T03:11:45.017Z,87.38
2023-06-12T03:12:45.017Z,87.90
2023-06-12T03:13:44.972Z,87.90
2023-06-12T03:14:44.989Z,88.24
2023-06-12T03:15:46.035Z,89.32
2023-06-12T03:16:44.950Z,89.01
2023-06-12T03:17:45.008Z,88.46
2023-06-12T03:18:44.962Z,88.20
2023-06-12T03:19:44.959Z,88.10
2023-06-12T03:20:44.927Z,88.36
2023-06-12T03:21:44.973Z,88.06
2023-06-12T03:22:44.924Z,88.06
2023-06-12T03:23:44.923Z,88.06
2023-06-12T03:24:44.904Z,87.75
2023-06-12T03:25:44.893Z,87.14
2023-06-12T03:26:44.896Z,86.59
2023-06-12T03:27:44.891Z,87.00
2023-06-12T03:28:44.871Z,87.10
2023-06-12T03:29:44.871Z,86.45
2023-06-12T03:30:44.855Z,85.94
2023-06-12T03:31:44.857Z,85.84
2023-06-12T03:32:44.871Z,85.60
2023-06-12T03:33:44.864Z,85.25
2023-06-12T03:34:44.860Z,84.95
2023-06-12T03:35:44.812Z,84.54
2023-06-12T03:36:44.827Z,84.20
2023-06-12T03:37:44.789Z,84.50
2023-06-12T03:38:45.344Z,83.59
2023-06-12T03:39:44.794Z,83.34
2023-06-12T03:40:44.779Z,83.54
2023-06-12T03:41:44.785Z,83.00
2023-06-12T03:42:44.762Z,82.39
2023-06-12T03:43:44.779Z,82.29
2023-06-12T03:44:44.773Z,82.39
2023-06-12T03:45:44.757Z,82.25
2023-06-12T03:46:44.809Z,81.54
2023-06-12T03:47:44.772Z,80.79
2023-06-12T04:03:44.795Z,79.60
2023-06-12T04:04:45.210Z,79.40
2023-06-12T04:05:45.853Z,79.40
2023-06-12T04:06:45.788Z,78.75
2023-06-12T04:07:45.789Z,78.55
2023-06-12T04:08:45.758Z,78.66
2023-06-12T04:09:45.777Z,77.91
2023-06-12T04:10:45.790Z,77.47
2023-06-12T04:11:45.784Z,76.72
2023-06-12T04:12:45.740Z,76.32
2023-06-12T04:13:45.729Z,75.68
2023-06-12T04:15:19.837Z,74.97
2023-06-12T04:15:45.841Z,75.24
2023-06-12T04:16:45.735Z,75.00
2023-06-12T04:17:45.761Z,74.19
2023-06-12T04:18:45.682Z,74.49
2023-06-12T04:19:45.688Z,74.40
2023-06-12T04:20:45.667Z,73.79
2023-06-12T04:21:45.692Z,73.89
2023-06-12T04:22:45.696Z,73.96
2023-06-12T04:23:45.712Z,73.35
2023-06-12T04:24:45.655Z,73.55
2023-06-12T04:25:45.699Z,73.25
2023-06-12T04:26:45.645Z,73.79
2023-06-12T04:27:49.299Z,73.11
2023-06-12T04:28:46.949Z,72.61
2023-06-12T04:29:45.700Z,72.61
2023-06-12T04:30:45.653Z,71.87
2023-06-12T04:31:45.897Z,71.53
2023-06-12T04:32:45.669Z,70.50
2023-06-12T04:33:45.946Z,70.06
2023-06-12T04:34:45.627Z,69.72
2023-06-12T04:35:45.570Z,68.98
2023-06-12T04:36:45.620Z,68.78
2023-06-12T04:37:45.576Z,67.94
2023-06-12T04:38:45.593Z,67.35
2023-06-12T04:39:46.396Z,67.94
2023-06-12T04:40:45.549Z,67.94
2023-06-12T04:41:45.561Z,67.85
2023-06-12T04:42:45.533Z,68.05
2023-06-12T04:43:45.602Z,67.51
2023-06-12T04:44:45.512Z,66.38
2023-06-12T04:45:45.583Z,67.31
2023-06-12T04:46:45.482Z,67.31
2023-06-12T04:47:45.571Z,68.48
2023-06-12T04:48:45.548Z,67.85
2023-06-12T04:49:46.438Z,66.47
2023-06-12T04:50:45.469Z,65.44
2023-06-12T04:51:45.443Z,66.67
2023-06-12T04:52:45.442Z,66.17
2023-06-12T04:53:45.417Z,66.58
2023-06-12T04:54:45.564Z,67.51
2023-06-12T04:55:45.476Z,68.41
2023-06-12T04:56:45.428Z,70.53
2023-06-12T04:57:46.424Z,70.76
2023-06-12T04:58:45.441Z,71.03
2023-06-12T04:59:45.445Z,71.50
2023-06-12T05:00:45.470Z,72.34
2023-06-12T05:01:45.404Z,72.20
2023-06-12T05:02:45.465Z,71.13
2023-06-12T05:03:45.372Z,70.83
2023-06-12T05:04:45.362Z,71.60
2023-06-12T05:05:45.389Z,72.51
2023-06-12T05:06:45.400Z,70.89
2023-06-12T05:07:45.331Z,72.24
2023-06-12T05:08:45.354Z,72.67
2023-06-12T05:09:45.382Z,72.81
2023-06-12T05:10:45.320Z,73.01
2023-06-12T05:11:45.416Z,73.32
2023-06-12T05:13:18.755Z,73.01
2023-06-12T05:13:45.857Z,72.81
2023-06-12T05:14:45.313Z,72.64
2023-06-12T05:15:45.279Z,69.56
2023-06-12T05:16:45.314Z,68.29
2023-06-12T05:17:45.305Z,66.35
2023-06-12T05:18:45.259Z,65.51
2023-06-12T05:19:45.262Z,65.41
2023-06-12T05:20:45.250Z,64.65
2023-06-12T05:21:45.231Z,63.81
2023-06-12T05:22:45.224Z,63.68
2023-06-12T05:23:46.273Z,62.98
2023-06-12T05:24:45.205Z,63.25
2023-06-12T05:25:45.216Z,62.45
2023-06-12T05:26:45.189Z,62.55
2023-06-12T05:27:45.189Z,62.02
2023-06-12T05:28:45.197Z,62.02
2023-06-12T05:29:45.168Z,62.15
2023-06-12T05:30:45.291Z,62.35
2023-06-12T05:31:45.140Z,62.68
2023-06-12T05:32:45.181Z,63.58
2023-06-12T05:33:45.870Z,62.45
2023-06-12T05:34:45.133Z,62.62
2023-06-12T05:35:45.223Z,61.59
2023-06-12T05:36:45.126Z,61.99
2023-06-12T05:37:45.111Z,61.29
2023-06-12T05:38:45.154Z,61.16
2023-06-12T05:39:45.118Z,61.46
2023-06-12T05:40:45.079Z,60.99
2023-06-12T05:41:45.097Z,62.62
2023-06-12T05:42:45.080Z,62.59
2023-06-12T05:43:45.087Z,61.87
2023-06-12T05:44:45.111Z,60.17
2023-06-12T05:45:45.068Z,60.05
2023-06-12T05:46:45.114Z,58.95
2023-06-12T05:47:45.144Z,60.28
2023-06-12T05:48:45.039Z,59.55
2023-06-12T05:49:45.058Z,60.05
2023-06-12T05:50:45.000Z,58.83
2023-06-12T05:51:45.022Z,58.95
2023-06-12T05:52:45.046Z,60.11
2023-06-12T05:53:45.051Z,61.24
2023-06-12T05:54:45.027Z,61.33
2023-06-12T05:55:44.994Z,61.66
2023-06-12T05:56:44.992Z,61.57
2023-06-12T05:57:45.006Z,61.99
2023-06-12T05:58:44.979Z,60.80
2023-06-12T05:59:44.972Z,61.04
2023-06-12T06:00:44.966Z,61.13
2023-06-12T06:01:44.963Z,60.93
2023-06-12T06:02:45.024Z,60.15
2023-06-12T06:03:45.993Z,58.92
2023-06-12T06:04:44.915Z,58.20
2023-06-12T06:05:44.964Z,58.62
2023-06-12T06:06:44.902Z,60.41
2023-06-12T06:07:44.914Z,59.95
2023-06-12T06:08:44.871Z,59.12
2023-06-12T06:09:44.902Z,60.11
2023-06-12T06:10:46.024Z,61.07
2023-06-12T06:11:44.863Z,61.46
2023-06-12T06:12:44.839Z,60.93
2023-06-12T06:13:44.846Z,61.33
2023-06-12T06:14:44.868Z,61.13
2023-06-12T06:15:44.845Z,62.59
2023-06-12T06:16:54.156Z,62.66
2023-06-12T06:17:46.885Z,61.30
2023-06-12T06:18:44.822Z,59.85
2023-06-12T06:19:44.839Z,60.38
2023-06-12T06:20:44.806Z,59.98
2023-06-12T06:21:44.783Z,61.30
2023-06-12T06:22:44.780Z,59.92
2023-06-12T06:23:44.830Z,59.02
2023-06-12T06:24:44.805Z,58.29
2023-06-12T06:25:44.803Z,58.50
2023-06-12T06:26:44.746Z,57.97
2023-06-12T06:27:44.753Z,58.10
2023-06-12T06:28:48.676Z,59.52
2023-06-12T06:29:45.776Z,58.10
2023-06-12T06:30:44.746Z,58.72
2023-06-12T06:31:44.762Z,58.95
2023-06-12T06:32:44.751Z,60.17
2023-06-12T06:33:44.700Z,60.22
2023-06-12T06:34:44.696Z,57.94
2023-06-12T06:35:44.820Z,58.07
2023-06-12T06:36:44.679Z,57.37
2023-06-12T06:37:44.683Z,57.82
2023-06-12T06:38:44.659Z,56.89
2023-06-12T06:39:44.717Z,56.04
2023-06-12T06:40:44.661Z,56.67
2023-06-12T06:41:44.646Z,56.89
2023-06-12T06:42:44.659Z,57.82
2023-06-12T06:43:44.677Z,57.62
2023-06-12T06:44:44.647Z,58.27
2023-06-12T06:45:44.664Z,57.80
2023-06-12T06:46:44.704Z,58.83
2023-06-12T06:47:44.601Z,58.80
2023-06-12T06:48:44.600Z,58.92
2023-06-12T06:49:44.632Z,58.67
2023-06-12T06:50:44.636Z,57.42
2023-06-12T06:51:44.586Z,56.79
2023-06-12T06:52:44.591Z,58.24
2023-06-12T06:53:45.046Z,58.97
2023-06-12T06:54:44.565Z,57.71
2023-06-12T06:55:44.550Z,58.01
2023-06-12T06:56:44.534Z,58.01
2023-06-12T06:57:44.526Z,57.39
2023-06-12T06:58:44.527Z,57.71
2023-06-12T06:59:44.559Z,58.31
2023-06-12T07:00:44.584Z,57.45
2023-06-12T07:01:44.595Z,57.09
2023-06-12T07:02:44.635Z,58.24
2023-06-12T07:03:45.091Z,57.17
2023-06-12T07:04:45.371Z,56.51
2023-06-12T07:05:44.508Z,55.57
2023-06-12T07:06:44.509Z,55.96
2023-06-12T07:07:59.663Z,55.32
2023-06-12T07:08:46.453Z,53.45
2023-06-12T07:09:45.405Z,53.50
2023-06-12T07:10:44.447Z,54.77
2023-06-12T07:11:44.453Z,55.52
2023-06-12T07:12:44.419Z,56.02
2023-06-12T07:13:44.980Z,55.96
2023-06-12T07:14:44.972Z,54.05
2023-06-12T07:15:44.518Z,54.13
2023-06-12T07:16:44.425Z,54.85
2023-06-12T07:17:44.404Z,55.57
2023-06-12T07:18:44.388Z,54.42
2023-06-12T07:19:44.399Z,53.70
2023-06-12T07:20:44.376Z,52.56
2023-06-12T07:21:44.391Z,52.39
2023-06-12T07:22:44.372Z,51.20
2023-06-12T07:23:45.631Z,51.47
2023-06-12T07:24:45.337Z,49.42
2023-06-12T07:25:44.362Z,51.97
2023-06-12T07:26:44.345Z,52.76
2023-06-12T07:27:44.344Z,53.53
2023-06-12T07:28:44.338Z,55.57
2023-06-12T07:29:44.307Z,54.35
2023-06-12T07:30:44.307Z,53.66
2023-06-12T07:31:44.586Z,54.35
2023-06-12T07:32:44.332Z,53.38
2023-06-12T07:33:44.294Z,53.00
2023-06-12T07:34:44.272Z,51.65
2023-06-12T07:35:44.265Z,51.37
2023-06-12T07:36:44.266Z,52.56
2023-06-12T07:37:44.285Z,54.53
2023-06-12T07:38:44.279Z,54.87
2023-06-12T07:39:44.305Z,52.51
2023-06-12T07:40:44.270Z,52.31
2023-06-12T07:41:44.307Z,52.31
2023-06-12T07:42:44.295Z,52.29
2023-06-12T07:43:44.240Z,53.50
2023-06-12T07:44:44.224Z,53.03
2023-06-12T07:45:44.186Z,51.60
2023-06-12T07:46:44.955Z,51.50
2023-06-12T07:47:44.589Z,51.72
2023-06-12T07:48:44.178Z,50.93
2023-06-12T07:49:44.180Z,50.88
2023-06-12T07:50:44.170Z,51.23
2023-06-12T07:51:45.156Z,51.70
2023-06-12T07:52:44.166Z,51.50
2023-06-12T07:53:44.158Z,51.23
2023-06-12T07:54:44.184Z,49.52
2023-06-12T07:55:44.141Z,49.66
2023-06-12T07:56:44.130Z,49.91
2023-06-12T07:57:44.106Z,48.46
2023-06-12T07:58:44.104Z,48.90
2023-06-12T07:59:44.112Z,49.64
2023-06-12T08:00:44.111Z,50.01
2023-06-12T08:01:44.152Z,49.72
2023-06-12T08:02:44.198Z,49.84
2023-06-12T08:03:45.141Z,49.59
2023-06-12T08:04:45.030Z,50.88
2023-06-12T08:05:44.096Z,49.15
2023-06-12T08:06:44.068Z,49.30
2023-06-12T08:07:44.037Z,49.20
2023-06-12T08:08:44.041Z,49.02
2023-06-12T08:09:44.034Z,48.90
2023-06-12T08:10:44.055Z,48.02
2023-06-12T08:11:44.062Z,49.52
2023-06-12T08:12:44.025Z,49.84
2023-06-12T08:13:44.010Z,49.49
2023-06-12T08:14:43.990Z,50.21
2023-06-12T08:15:43.998Z,50.04
2023-06-12T08:16:44.084Z,49.30
2023-06-12T08:17:43.991Z,49.01
2023-06-12T08:18:43.984Z,48.41
2023-06-12T08:19:44.014Z,48.61
2023-06-12T08:20:43.981Z,48.19
2023-06-12T08:21:43.977Z,47.89
2023-06-12T08:22:43.986Z,47.60
2023-06-12T08:23:44.045Z,47.57
2023-06-12T08:24:43.970Z,47.89
2023-06-12T08:25:43.940Z,49.54
2023-06-12T08:26:43.948Z,49.77
2023-06-12T08:27:43.951Z,49.72
2023-06-12T08:28:43.909Z,47.99
2023-06-12T08:29:44.892Z,47.50
2023-06-12T08:30:43.957Z,47.50
2023-06-12T08:31:43.908Z,47.22
2023-06-12T08:32:44.523Z,47.30
2023-06-12T08:33:44.901Z,48.11
2023-06-12T08:34:43.889Z,48.24
2023-06-12T08:35:43.854Z,48.28
2023-06-12T08:36:43.855Z,46.75
2023-06-12T08:37:43.857Z,46.97
2023-06-12T08:38:43.900Z,49.07
2023-06-12T08:39:43.813Z,50.83
2023-06-12T08:40:43.853Z,49.40
2023-06-12T08:41:43.837Z,46.20
2023-06-12T08:42:43.840Z,46.08
2023-06-12T08:43:43.803Z,45.29
2023-06-12T08:44:43.792Z,45.61
2023-06-12T08:45:43.782Z,46.23
2023-06-12T08:46:43.810Z,46.11
2023-06-12T08:47:43.803Z,45.07
2023-06-12T08:48:43.816Z,44.87
2023-06-12T08:49:43.760Z,44.14
2023-06-12T08:50:44.172Z,43.84
2023-06-12T08:51:44.771Z,44.43
2023-06-12T08:52:43.751Z,43.05
2023-06-12T08:53:43.774Z,42.93
2023-06-12T08:54:43.714Z,41.95
2023-06-12T08:55:43.714Z,42.72
2023-06-12T08:56:43.751Z,40.94
2023-06-12T08:57:43.694Z,42.13
2023-06-12T08:58:43.722Z,42.61
2023-06-12T08:59:43.684Z,43.47
2023-06-12T09:00:43.679Z,46.23
2023-06-12T09:01:43.842Z,46.42
2023-06-12T09:02:43.720Z,46.27
2023-06-12T09:03:43.810Z,45.63
2023-06-12T09:04:43.726Z,44.68
2023-06-12T09:05:43.719Z,44.02
2023-06-12T09:06:43.658Z,43.11
2023-06-12T09:07:43.636Z,43.82
2023-06-12T09:08:43.617Z,44.93
2023-06-12T09:09:43.618Z,44.24
2023-06-12T09:10:43.637Z,44.06
2023-06-12T09:11:43.638Z,44.54
2023-06-12T09:12:43.622Z,44.36
2023-06-12T09:13:43.618Z,43.77
2023-06-12T09:14:43.571Z,44.00
2023-06-12T09:15:43.610Z,43.92
2023-06-12T09:16:43.598Z,44.85
2023-06-12T09:17:43.679Z,45.15
2023-06-12T09:18:43.550Z,44.83
2023-06-12T09:19:43.525Z,44.24
2023-06-12T09:20:44.324Z,44.83
2023-06-12T09:21:44.562Z,44.22
2023-06-12T09:22:43.521Z,44.24
2023-06-12T09:23:43.519Z,43.53
2023-06-12T09:24:43.528Z,45.01
2023-06-12T09:25:49.927Z,45.07
2023-06-12T09:26:45.498Z,44.81
2023-06-12T09:27:43.495Z,44.22
2023-06-12T09:28:43.458Z,44.97
2023-06-12T09:29:44.470Z,42.76
2023-06-12T09:30:43.458Z,43.33
2023-06-12T09:31:43.497Z,43.41
2023-06-12T09:32:43.552Z,44.45
2023-06-12T09:33:43.433Z,44.10
2023-06-12T09:34:43.436Z,42.58
2023-06-12T09:35:43.417Z,41.95
2023-06-12T09:36:43.456Z,41.97
2023-06-12T09:37:43.430Z,43.27
2023-06-12T09:38:43.426Z,44.06
2023-06-12T09:39:43.433Z,41.73
2023-06-12T09:40:43.413Z,41.04
2023-06-12T09:41:43.388Z,42.02
2023-06-12T09:42:43.402Z,42.26
2023-06-12T09:43:43.408Z,42.30
2023-06-12T09:44:43.361Z,44.92
2023-06-12T09:45:43.372Z,44.10
2023-06-12T09:46:43.463Z,42.32
2023-06-12T09:47:43.418Z,42.58
2023-06-12T09:48:43.391Z,41.16
2023-06-12T09:49:43.364Z,41.93
2023-06-12T09:50:43.312Z,42.46
2023-06-12T09:51:43.319Z,43.25
2023-06-12T09:52:43.328Z,42.32
2023-06-12T09:53:43.326Z,42.44
2023-06-12T09:54:43.313Z,42.68
2023-06-12T09:55:43.263Z,42.99
2023-06-12T09:56:43.281Z,42.40
2023-06-12T09:57:43.295Z,42.16
2023-06-12T09:58:43.271Z,40.66
2023-06-12T09:59:43.294Z,42.34
2023-06-12T10:00:43.249Z,42.29
2023-06-12T10:01:43.287Z,41.20
2023-06-12T10:02:43.263Z,41.38
2023-06-12T10:03:43.235Z,41.71
2023-06-12T10:04:43.245Z,41.77
2023-06-12T10:05:43.294Z,41.17
2023-06-12T10:06:43.194Z,42.43
2023-06-12T10:07:43.225Z,42.82
2023-06-12T10:08:43.255Z,42.58
2023-06-12T10:09:43.174Z,41.10
2023-06-12T10:10:43.179Z,41.22
2023-06-12T10:11:43.217Z,41.28
2023-06-12T10:12:43.164Z,39.26
2023-06-12T10:13:43.215Z,40.76
2023-06-12T10:14:43.183Z,40.19
2023-06-12T10:15:43.175Z,41.39
2023-06-12T10:16:43.150Z,40.21
2023-06-12T10:17:43.138Z,40.62
2023-06-12T10:18:43.160Z,40.88
2023-06-12T10:19:43.118Z,41.20
2023-06-12T10:20:43.140Z,40.05
2023-06-12T10:21:43.140Z,39.28
2023-06-12T10:22:43.122Z,40.31
2023-06-12T10:23:43.249Z,41.02
2023-06-12T10:24:43.096Z,40.50
2023-06-12T10:25:43.096Z,40.62
2023-06-12T10:26:43.119Z,41.12
2023-06-12T10:27:43.075Z,41.22
2023-06-12T10:28:43.092Z,40.23
2023-06-12T10:29:43.066Z,41.02
2023-06-12T10:30:43.614Z,41.41
2023-06-12T10:31:43.184Z,41.10
2023-06-12T10:32:43.102Z,41.10
2023-06-12T10:33:43.036Z,40.72
2023-06-12T10:34:43.150Z,41.02
2023-06-12T10:35:43.061Z,41.53
2023-06-12T10:36:43.090Z,41.06
2023-06-12T10:37:43.202Z,41.99
2023-06-12T10:38:43.024Z,40.56
2023-06-12T10:39:43.007Z,40.26
2023-06-12T10:40:49.674Z,40.47
2023-06-12T10:41:44.948Z,40.98
2023-06-12T10:42:42.978Z,40.88
2023-06-12T10:43:55.520Z,42.38
2023-06-12T10:44:44.942Z,42.19
2023-06-12T10:45:43.091Z,41.49
2023-06-12T10:46:42.929Z,42.27
2023-06-12T10:47:42.978Z,41.04
2023-06-12T10:48:42.897Z,41.95
2023-06-12T10:49:42.948Z,40.82
2023-06-12T10:50:42.908Z,42.41
2023-06-12T10:51:42.889Z,42.17
2023-06-12T10:52:42.889Z,41.95
2023-06-12T10:53:42.874Z,40.72
2023-06-12T10:54:42.889Z,40.98
2023-06-12T10:55:43.037Z,41.24
2023-06-12T10:56:42.907Z,41.31
2023-06-12T10:57:42.846Z,42.88
2023-06-12T10:58:42.853Z,41.99
2023-06-12T10:59:42.873Z,42.78
2023-06-12T11:00:42.944Z,42.44
2023-06-12T11:02:37.598Z,42.03
2023-06-12T11:02:42.942Z,41.46
2023-06-12T11:03:43.016Z,42.17
2023-06-12T11:04:42.991Z,42.88
2023-06-12T11:05:42.885Z,41.41
2023-06-12T11:06:42.803Z,41.46
2023-06-12T11:07:42.816Z,42.50
2023-06-12T11:08:42.889Z,43.10
2023-06-12T11:09:42.771Z,43.69
2023-06-12T11:10:42.776Z,41.08
2023-06-12T11:11:42.744Z,42.64
2023-06-12T11:13:44.725Z,42.35
2023-06-12T11:14:42.742Z,43.13
2023-06-12T11:15:42.830Z,42.03
2023-06-12T11:16:42.753Z,41.91
2023-06-12T11:17:42.732Z,42.14
2023-06-12T11:18:42.692Z,42.92
2023-06-12T11:19:42.695Z,42.74
2023-06-12T11:20:42.694Z,43.26
2023-06-12T11:21:42.717Z,42.74
2023-06-12T11:22:42.669Z,43.13
2023-06-12T11:23:42.775Z,42.30
2023-06-12T11:24:42.755Z,42.50
2023-06-12T11:25:42.771Z,42.92
2023-06-12T11:26:42.659Z,42.92
2023-06-12T11:27:42.670Z,41.71
2023-06-12T11:28:42.666Z,40.61
2023-06-12T11:29:56.606Z,40.76
2023-06-12T11:30:57.966Z,40.66
2023-06-12T11:31:44.674Z,40.53
2023-06-12T11:32:42.628Z,41.57
2023-06-12T11:33:42.803Z,42.05
2023-06-12T11:34:42.597Z,42.44
2023-06-12T11:35:42.595Z,43.85
2023-06-12T11:36:42.599Z,43.08
2023-06-12T11:40:43.582Z,43.31
2023-06-12T11:41:42.565Z,43.10
2023-06-12T11:42:42.618Z,44.27
2023-06-12T11:43:42.560Z,44.05
2023-06-12T11:44:42.550Z,43.80
2023-06-12T11:45:42.648Z,41.89
2023-06-12T11:46:42.530Z,42.26
2023-06-12T11:49:43.603Z,40.55
2023-06-12T11:50:42.491Z,40.96
2023-06-12T11:51:42.468Z,42.16
2023-06-12T11:52:42.464Z,40.96
2023-06-12T11:53:42.475Z,40.82
2023-06-12T11:57:43.454Z,43.33
2023-06-12T11:58:42.449Z,43.73
2023-06-12T11:59:42.425Z,42.43
2023-06-12T12:00:43.007Z,42.32
2023-06-12T12:01:42.470Z,42.01
2023-06-12T12:02:43.281Z,43.41
2023-06-12T12:03:42.450Z,42.44
2023-06-12T12:04:42.459Z,42.35
2023-06-12T12:05:42.430Z,43.24
2023-06-12T12:06:42.368Z,42.80
2023-06-12T12:07:42.371Z,40.90
2023-06-12T12:08:42.537Z,42.21
2023-06-12T12:09:42.379Z,41.39
2023-06-12T12:10:42.386Z,42.16
2023-06-12T12:11:42.347Z,40.84
2023-06-12T12:12:42.355Z,41.02
2023-06-12T12:13:42.392Z,40.23
2023-06-12T12:14:43.160Z,40.76
2023-06-12T12:15:43.182Z,40.17
2023-06-12T12:16:42.337Z,39.95
2023-06-12T12:17:42.383Z,39.73
2023-06-12T12:18:42.280Z,39.94
2023-06-12T12:19:42.318Z,39.65
2023-06-12T12:20:42.316Z,39.36
2023-06-12T12:21:42.273Z,39.25
2023-06-12T12:22:42.277Z,39.44
2023-06-12T12:23:42.388Z,38.77
2023-06-12T12:24:42.236Z,39.06
2023-06-12T12:25:42.292Z,39.42
2023-06-12T12:26:42.254Z,38.91
2023-06-12T12:27:43.219Z,38.12
2023-06-12T12:28:42.207Z,39.17
2023-06-12T12:29:58.821Z,40.21
2023-06-12T12:30:44.234Z,39.11
2023-06-12T12:31:44.457Z,40.23
2023-06-12T12:32:43.259Z,40.62
2023-06-12T12:33:42.191Z,39.83
2023-06-12T12:34:42.198Z,39.97
2023-06-12T12:35:43.246Z,41.14
2023-06-12T12:36:42.173Z,39.54
2023-06-12T12:37:42.153Z,39.00
2023-06-12T12:38:42.144Z,39.18
2023-06-12T12:39:42.938Z,39.40
2023-06-12T12:40:42.137Z,38.89
2023-06-12T12:41:42.449Z,38.96
2023-06-12T12:42:42.140Z,38.16
2023-06-12T12:43:42.133Z,38.85
2023-06-12T12:44:42.166Z,39.93
2023-06-12T12:45:42.103Z,39.22
2023-06-12T12:46:42.072Z,39.28
2023-06-12T12:47:42.115Z,39.26
2023-06-12T12:48:42.192Z,39.12
2023-06-12T12:49:48.532Z,39.12
2023-06-12T12:50:56.800Z,39.11
2023-06-12T12:51:44.140Z,38.67
2023-06-12T12:52:42.069Z,39.30
2023-06-12T12:53:42.068Z,39.48
2023-06-12T12:54:42.063Z,37.60
2023-06-12T12:55:42.046Z,38.81
2023-06-12T12:56:41.998Z,38.63
2023-06-12T12:57:42.014Z,39.83
2023-06-12T12:58:42.029Z,39.12
2023-06-12T12:59:42.031Z,38.59
2023-06-12T13:00:42.078Z,38.90
2023-06-12T13:01:42.000Z,38.79
2023-06-12T13:02:42.035Z,38.29
2023-06-12T13:03:41.984Z,39.00
2023-06-12T13:04:41.960Z,38.20
2023-06-12T13:05:41.968Z,38.37
2023-06-12T13:06:41.943Z,38.18
2023-06-12T13:07:41.949Z,37.59
2023-06-12T13:08:42.526Z,38.28
2023-06-12T13:09:41.927Z,39.17
2023-06-12T13:10:42.968Z,38.57
2023-06-12T13:11:41.944Z,38.26
2023-06-12T13:12:41.900Z,37.15
2023-06-12T13:13:41.909Z,37.96
2023-06-12T13:14:41.980Z,37.87
2023-06-12T13:15:41.904Z,37.92
2023-06-12T13:16:41.944Z,39.14